Notice: Undefined index: language in D:\xampp\htdocs\vam\index.php on line 25
Open Air Virtual

 METAR AND TAF INFORMATION
METAR FOR EGGW
ADDS - METARS form results

(1436 UTC 04 April 2020)
Data provider http://aviationweather.gov/metar/data/
 
METAR text: EGGW 041420Z AUTO 18009KT 140V220 9999 NCD 15/02 Q1019
Conditions at: EGGW (LUTON AIRPORT , GB) observed 1420 UTC 04 April 2020
Temperature: 15.0°C (59°F)
Dewpoint: 2.0°C (36°F) [RH = 41%]
Pressure (altimeter): 30.09 inches Hg (1019.0 mb)
Winds: from the S (180 degrees) at 10 MPH (9 knots; 4.6 m/s)
Visibility: 6 or more miles (10+ km)
Ceiling: at least 12,000 feet AGL
Clouds: sky clear below 12,000 feet AGL
Weather: no significant weather observed at this time

METAR text: EGGW 041350Z AUTO 20008KT 160V230 9999 BKN045 15/04 Q1019
Conditions at: EGGW (LUTON AIRPORT , GB) observed 1350 UTC 04 April 2020
Temperature: 15.0°C (59°F)
Dewpoint: 4.0°C (39°F) [RH = 48%]
Pressure (altimeter): 30.09 inches Hg (1019.0 mb)
Winds: from the SSW (200 degrees) at 9 MPH (8 knots; 4.1 m/s)
Visibility: 6 or more miles (10+ km)
Ceiling: 4500 feet AGL
Clouds: broken clouds at 4500 feet AGL
Weather: no significant weather observed at this time

Forecast for: EGGW (LUTON AIRPORT , GB)
Text: TAF EGGW 041100Z 0412/0512 17010KT 9999 FEW045
Forecast period: 1200 UTC 04 April 2020 to 1200 UTC 05 April 2020
Forecast type: FROM: standard forecast or significant change
Winds: from the S (170 degrees) at 12 MPH (10 knots; 5.1 m/s)
Visibility: 6 or more miles 10+ km)
Ceiling: at least 12,000 feet AGL
Clouds: few clouds at 4500 feet AGL
Weather: no significant weather forecast for this period
Text: TEMPO 0509/0512 16015G25KT
Forecast period: 0900 to 1200 UTC 05 April 2020
Forecast type: TEMPORARY: The following changes expected for less than half the time period
Winds: from the SSE (160 degrees) at 17 MPH (15 knots; 7.7 m/s)
gusting to 29 MPH (25 knots; 12.9 m/s)
Visibility: missing
Ceiling: unknown
Clouds: missing
Weather: no significant weather forecast for this period

 AIRPORT MAP

 RUNWAY INFORMATION
Runway 08 Runway length 7086 ft Runway width 151 ft
Runway elevation 515 ft Runway displaced threshold 0 ft Runway heading 74
Runway 26 Runway length 7086 ft Runway width 151 ft
Runway elevation 508 ft Runway displaced threshold 279 ft Runway heading 254

 AIRPORT FREQUENCIES
Type APP Name APP Frequency 129.55 MHZ
Type ATIS Name ATIS Frequency 120.575 MHZ
Type GND Name GND Frequency 121.75 MHZ
Type TWR Name TWR Frequency 132.55 MHZ

 AIRPORT NEAR NAVIGATION AIDS



Powered by Virtual Airlines Manager [v2.6.2]